Time;durP1;ratioP1;P1;durP2;ratioP2;P2;SDS_P1;SDS_P2;PMS_P1;PMS_P2;Temp;Humidity;BMP_temperature;BMP_pressure;BME280_temperature;BME280_humidity;BME280_pressure;Samples;Min_cycle;Max_cycle;Signal;HPM_P1;HPM_P2
2022/03/01 00:01:23;;;;;;;9.70;2.75;;;0.50;99.90;;;;;;5039203;28;20049;-67
2022/03/01 00:03:49;;;;;;;9.93;3.90;;;0.50;99.90;;;;;;5042895;28;20035;-67
2022/03/01 00:06:14;;;;;;;4.55;1.80;;;0.50;99.90;;;;;;5049092;28;20040;-67
2022/03/01 00:08:40;;;;;;;9.10;3.63;;;0.50;99.90;;;;;;5043257;28;20040;-67
2022/03/01 00:11:05;;;;;;;4.97;2.05;;;0.40;99.90;;;;;;5043992;28;20041;-67
2022/03/01 00:13:31;;;;;;;7.85;2.60;;;0.20;99.90;;;;;;5036233;28;20064;-67
2022/03/01 00:15:56;;;;;;;6.07;2.75;;;0.10;99.90;;;;;;5045625;28;20392;-67
2022/03/01 00:18:22;;;;;;;6.15;3.17;;;0.10;99.90;;;;;;5042265;28;20191;-67
2022/03/01 00:20:48;;;;;;;6.90;2.60;;;0.10;99.90;;;;;;5041103;28;20028;-67
2022/03/01 00:23:13;;;;;;;8.05;4.05;;;0.20;99.90;;;;;;5038205;28;20437;-67
2022/03/01 00:25:39;;;;;;;7.28;2.95;;;0.00;99.90;;;;;;5040909;28;20032;-67
2022/03/01 00:28:04;;;;;;;12.73;3.85;;;-0.10;99.90;;;;;;5035397;28;20390;-67
2022/03/01 00:30:30;;;;;;;5.00;2.47;;;-0.20;99.90;;;;;;5041187;28;20037;-67
2022/03/01 00:32:56;;;;;;;8.55;3.78;;;-0.40;99.90;;;;;;5042079;28;20050;-67
2022/03/01 00:35:22;;;;;;;4.72;2.45;;;-0.40;99.90;;;;;;5043383;28;20021;-67
2022/03/01 00:37:48;;;;;;;6.55;2.90;;;-0.50;99.90;;;;;;5039743;28;20025;-67
2022/03/01 00:40:13;;;;;;;5.10;2.70;;;-0.40;99.90;;;;;;5042521;28;20021;-67
2022/03/01 00:42:39;;;;;;;5.82;1.67;;;-0.30;99.90;;;;;;5038202;28;20101;-67
2022/03/01 00:45:05;;;;;;;6.65;2.55;;;-0.10;99.90;;;;;;5052708;28;20068;-67
2022/03/01 00:47:31;;;;;;;5.68;2.47;;;-0.10;99.90;;;;;;5044748;28;20500;-67
2022/03/01 00:49:57;;;;;;;5.97;2.60;;;-0.10;99.90;;;;;;5041629;28;20033;-67
2022/03/01 00:52:23;;;;;;;9.02;2.97;;;-0.20;99.90;;;;;;5046476;28;20024;-67
2022/03/01 00:54:49;;;;;;;8.43;3.53;;;-0.30;99.90;;;;;;5041166;28;20032;-68
2022/03/01 00:57:15;;;;;;;7.57;2.40;;;-0.50;99.90;;;;;;5041604;28;20024;-67
2022/03/01 00:59:40;;;;;;;5.13;2.97;;;-0.60;99.90;;;;;;5039089;28;20083;-67
2022/03/01 01:02:06;;;;;;;7.25;2.58;;;-0.80;99.90;;;;;;5046342;28;20024;-67
2022/03/01 01:04:31;;;;;;;7.43;2.15;;;-0.60;99.90;;;;;;5037019;28;20531;-67
2022/03/01 01:06:57;;;;;;;5.72;3.05;;;-0.60;99.90;;;;;;5044973;28;20030;-67
2022/03/01 01:09:23;;;;;;;10.52;5.10;;;-0.60;99.90;;;;;;5044420;28;20421;-67
2022/03/01 01:11:48;;;;;;;10.60;3.05;;;-0.70;99.90;;;;;;5037813;28;20033;-67
2022/03/01 01:14:14;;;;;;;4.53;2.30;;;-0.70;99.90;;;;;;5041953;28;20033;-67
2022/03/01 01:16:41;;;;;;;6.55;3.58;;;-0.70;99.90;;;;;;5039229;28;20758;-67
2022/03/01 01:19:06;;;;;;;5.18;2.55;;;-0.60;99.90;;;;;;5043733;28;20037;-67
2022/03/01 01:24:17;;;;;;;10.02;3.33;;;-0.50;99.90;;;;;;5045451;28;20079;-67
2022/03/01 01:26:42;;;;;;;4.70;2.35;;;-0.60;99.90;;;;;;5051771;28;20021;-67
2022/03/01 01:29:08;;;;;;;9.98;3.88;;;-0.60;99.90;;;;;;5043922;28;20425;-67
2022/03/01 01:31:33;;;;;;;3.83;2.05;;;-0.70;99.90;;;;;;5045364;28;20054;-67
2022/03/01 01:33:59;;;;;;;7.22;2.75;;;-0.90;99.90;;;;;;5043544;28;20029;-67
2022/03/01 01:36:25;;;;;;;6.07;2.55;;;-1.00;99.90;;;;;;5036540;28;20124;-67
2022/03/01 01:38:52;;;;;;;5.20;2.10;;;-1.00;99.90;;;;;;5048596;28;20024;-67
2022/03/01 01:41:17;;;;;;;5.03;2.50;;;-1.10;99.90;;;;;;5036923;28;20128;-67
2022/03/01 01:43:43;;;;;;;9.63;2.70;;;-1.00;99.90;;;;;;5028513;28;20108;-67
2022/03/01 01:46:09;;;;;;;11.05;2.67;;;-1.00;99.90;;;;;;5035832;28;20026;-67
2022/03/01 01:48:34;;;;;;;4.45;2.33;;;-1.10;99.90;;;;;;5034415;28;20069;-67
2022/03/01 01:51:00;;;;;;;5.93;2.38;;;-1.10;99.90;;;;;;5037705;28;20112;-67
2022/03/01 01:53:26;;;;;;;6.97;2.78;;;-1.10;99.90;;;;;;5034559;28;20036;-67
2022/03/01 01:55:51;;;;;;;9.82;2.65;;;-1.10;99.90;;;;;;5033609;28;20029;-67
2022/03/01 01:58:18;;;;;;;4.82;2.38;;;-0.80;99.90;;;;;;5038394;28;20029;-67
2022/03/01 02:00:44;;;;;;;4.22;2.40;;;-0.70;99.90;;;;;;5035525;28;20014;-67
2022/03/01 02:03:09;;;;;;;4.40;1.98;;;-0.90;99.90;;;;;;5054044;28;20026;-67
2022/03/01 02:05:35;;;;;;;3.35;1.95;;;-1.00;99.90;;;;;;5042222;28;20034;-67
2022/03/01 02:08:01;;;;;;;7.50;1.65;;;-1.10;99.90;;;;;;5033299;28;20032;-67
2022/03/01 02:10:27;;;;;;;4.90;2.83;;;-1.20;99.90;;;;;;5035712;28;20362;-67
2022/03/01 02:12:55;;;;;;;6.03;3.00;;;-1.10;99.90;;;;;;5042892;28;20029;-67
2022/03/01 02:15:21;;;;;;;4.05;1.55;;;-1.10;99.90;;;;;;5035415;28;20564;-67
2022/03/01 02:17:47;;;;;;;4.15;2.35;;;-0.80;99.90;;;;;;5036834;28;20219;-67
2022/03/01 02:20:18;;;;;;;6.60;3.00;;;-0.70;99.90;;;;;;5041055;28;20611;-67
2022/03/01 02:22:43;;;;;;;5.97;2.28;;;-0.70;99.90;;;;;;5040805;28;20029;-67
2022/03/01 02:25:09;;;;;;;9.40;3.15;;;-0.70;99.90;;;;;;5033758;28;20033;-67
2022/03/01 02:27:35;;;;;;;7.57;1.90;;;-0.80;99.90;;;;;;5043901;28;20048;-67
2022/03/01 02:30:01;;;;;;;5.80;2.90;;;-0.90;99.90;;;;;;5040906;28;20414;-67
2022/03/01 02:32:27;;;;;;;11.75;3.38;;;-1.00;99.90;;;;;;5046720;28;20107;-67
2022/03/01 02:34:53;;;;;;;5.38;2.55;;;-1.00;99.90;;;;;;5041167;28;20025;-67
2022/03/01 02:37:18;;;;;;;6.35;2.58;;;-0.90;99.90;;;;;;5039990;28;20167;-67
2022/03/01 02:39:44;;;;;;;3.80;2.03;;;-0.90;99.90;;;;;;5042143;28;20641;-67
2022/03/01 02:42:10;;;;;;;5.20;2.00;;;-0.80;99.90;;;;;;5043626;28;20119;-67
2022/03/01 02:44:35;;;;;;;7.88;2.92;;;-0.60;99.90;;;;;;5037920;28;20033;-67
2022/03/01 02:47:01;;;;;;;4.95;2.45;;;-0.50;99.90;;;;;;5041927;28;20040;-67
2022/03/01 02:49:26;;;;;;;3.90;2.05;;;-0.40;99.90;;;;;;5034241;28;20029;-67
2022/03/01 02:51:52;;;;;;;9.43;3.58;;;-0.30;99.90;;;;;;5037556;28;20110;-67
2022/03/01 02:54:18;;;;;;;6.28;2.70;;;-0.30;99.90;;;;;;5035628;28;20501;-67
2022/03/01 02:56:43;;;;;;;6.13;3.33;;;-0.20;99.90;;;;;;5041053;28;20033;-67
2022/03/01 02:59:09;;;;;;;13.48;3.40;;;-0.30;99.90;;;;;;5033877;28;20025;-67
2022/03/01 03:01:35;;;;;;;6.07;1.88;;;-0.50;99.90;;;;;;5032353;28;20018;-67
2022/03/01 03:04:00;;;;;;;12.95;2.42;;;-0.50;99.90;;;;;;5041287;28;20060;-67
2022/03/01 03:06:27;;;;;;;3.60;2.08;;;-0.50;99.90;;;;;;5043560;28;20036;-67
2022/03/01 03:08:52;;;;;;;4.25;2.50;;;-0.40;99.90;;;;;;5043457;28;20449;-67
2022/03/01 03:11:18;;;;;;;3.72;1.88;;;-0.30;99.90;;;;;;5034636;28;20040;-66
2022/03/01 03:13:44;;;;;;;5.47;3.22;;;0.00;99.90;;;;;;5038212;28;20025;-67
2022/03/01 03:16:10;;;;;;;3.90;1.73;;;0.20;99.90;;;;;;5043113;28;20117;-67
2022/03/01 03:18:36;;;;;;;3.63;2.20;;;0.20;99.90;;;;;;5035014;28;20045;-67
2022/03/01 03:21:02;;;;;;;6.18;2.75;;;0.10;99.90;;;;;;5043292;28;20013;-67
2022/03/01 03:23:28;;;;;;;6.57;2.30;;;0.00;99.90;;;;;;5037045;28;20190;-67
2022/03/01 03:25:54;;;;;;;3.60;2.20;;;0.00;99.90;;;;;;5052856;28;20096;-67
2022/03/01 03:28:20;;;;;;;3.97;1.90;;;0.10;99.90;;;;;;5046891;28;20032;-67
2022/03/01 03:30:45;;;;;;;3.88;1.27;;;0.10;99.90;;;;;;5041959;28;20033;-67
2022/03/01 03:33:11;;;;;;;3.13;2.03;;;0.20;99.90;;;;;;5044254;28;20120;-67
2022/03/01 03:35:37;;;;;;;5.38;2.88;;;0.50;99.90;;;;;;5040860;28;20025;-67
2022/03/01 03:38:03;;;;;;;5.50;2.63;;;0.90;99.90;;;;;;5050259;28;20382;-67
2022/03/01 03:40:29;;;;;;;3.13;1.83;;;1.00;99.90;;;;;;5043700;28;20021;-67
2022/03/01 03:42:55;;;;;;;4.63;1.85;;;1.20;99.90;;;;;;5036380;28;20056;-67
2022/03/01 03:45:20;;;;;;;7.20;2.83;;;1.60;99.90;;;;;;5047449;28;20053;-67
2022/03/01 03:47:46;;;;;;;6.10;2.05;;;1.80;99.90;;;;;;5043599;28;20029;-67
2022/03/01 03:50:11;;;;;;;6.25;2.55;;;1.80;99.90;;;;;;5046541;28;20396;-67
2022/03/01 03:52:39;;;;;;;4.50;2.13;;;1.90;99.90;;;;;;5046832;28;20507;-66
2022/03/01 03:55:06;;;;;;;6.38;2.88;;;2.10;99.90;;;;;;5050974;28;20086;-67
2022/03/01 03:57:33;;;;;;;5.78;2.67;;;2.20;99.90;;;;;;5036590;28;20025;-67
2022/03/01 03:59:59;;;;;;;3.80;2.15;;;2.30;99.90;;;;;;5044556;28;20086;-67
2022/03/01 04:02:25;;;;;;;5.05;1.98;;;2.40;99.90;;;;;;5038952;28;20033;-67
2022/03/01 04:04:50;;;;;;;7.85;3.03;;;2.40;99.90;;;;;;5035453;28;20029;-66
2022/03/01 04:07:16;;;;;;;4.78;2.42;;;2.40;99.90;;;;;;5044677;28;20536;-67
2022/03/01 04:09:41;;;;;;;4.80;2.50;;;2.50;99.90;;;;;;5037160;28;20056;-67
2022/03/01 04:12:07;;;;;;;5.28;2.05;;;2.50;99.90;;;;;;5040709;28;20034;-67
2022/03/01 04:14:33;;;;;;;5.15;2.38;;;2.50;99.90;;;;;;5041321;28;20029;-66
2022/03/01 04:16:59;;;;;;;8.93;3.20;;;2.30;99.90;;;;;;5036974;28;20036;-67
2022/03/01 04:19:24;;;;;;;11.00;2.83;;;2.20;99.90;;;;;;5039728;28;20021;-67
2022/03/01 04:21:50;;;;;;;4.20;1.75;;;2.10;99.90;;;;;;5043310;28;20021;-67
2022/03/01 04:24:15;;;;;;;5.38;2.05;;;2.10;99.90;;;;;;5044592;28;20032;-67
2022/03/01 04:26:41;;;;;;;11.35;2.80;;;2.10;99.90;;;;;;5042337;28;20540;-67
2022/03/01 04:29:06;;;;;;;7.03;3.00;;;2.10;99.90;;;;;;5042701;28;20119;-67
2022/03/01 04:31:32;;;;;;;3.40;1.88;;;2.10;99.90;;;;;;5049192;28;20372;-67
2022/03/01 04:33:58;;;;;;;8.25;3.70;;;2.00;99.90;;;;;;5043105;28;20071;-67
2022/03/01 04:36:23;;;;;;;6.32;2.30;;;2.20;99.90;;;;;;5044481;28;20064;-67
2022/03/01 04:38:51;;;;;;;11.40;2.78;;;2.20;99.90;;;;;;5040289;28;20037;-67
2022/03/01 04:41:17;;;;;;;4.95;1.85;;;2.10;99.90;;;;;;5037303;28;20025;-67
2022/03/01 04:43:42;;;;;;;3.67;1.95;;;2.00;99.90;;;;;;5040995;28;20075;-67
2022/03/01 04:46:08;;;;;;;7.05;2.15;;;1.90;99.90;;;;;;5048872;28;20432;-67
2022/03/01 04:48:34;;;;;;;5.18;2.45;;;1.90;99.90;;;;;;5043267;28;20505;-67
2022/03/01 04:50:59;;;;;;;8.73;3.33;;;1.80;99.90;;;;;;5042831;28;20040;-67
2022/03/01 04:53:25;;;;;;;9.75;3.42;;;1.90;99.90;;;;;;5041526;28;20043;-67
2022/03/01 04:55:51;;;;;;;5.68;2.47;;;1.80;99.90;;;;;;5044811;28;20025;-67
2022/03/01 04:58:17;;;;;;;5.22;2.13;;;1.70;99.90;;;;;;5041197;28;20495;-67
2022/03/01 05:00:42;;;;;;;9.63;2.80;;;1.50;99.90;;;;;;5037190;28;20175;-67
2022/03/01 05:03:08;;;;;;;4.30;2.08;;;1.70;99.90;;;;;;5042006;28;20029;-67
2022/03/01 05:05:34;;;;;;;7.22;2.60;;;1.70;99.90;;;;;;5037301;28;20115;-67
2022/03/01 05:07:59;;;;;;;3.08;1.75;;;1.80;99.90;;;;;;5043398;28;20040;-67
2022/03/01 05:10:25;;;;;;;3.13;1.67;;;1.80;99.90;;;;;;5036089;28;20477;-66
2022/03/01 05:12:57;;;;;;;4.38;2.25;;;1.90;99.90;;;;;;5038722;28;20033;-67
2022/03/01 05:15:24;;;;;;;8.25;3.03;;;2.30;99.90;;;;;;5033707;28;20069;-66
2022/03/01 05:17:50;;;;;;;7.30;2.70;;;2.50;99.90;;;;;;5034809;28;20025;-67
2022/03/01 05:20:17;;;;;;;8.85;2.38;;;2.60;99.90;;;;;;5037877;28;20040;-66
2022/03/01 05:22:43;;;;;;;5.65;2.50;;;2.70;99.90;;;;;;5039771;28;20108;-66
2022/03/01 05:25:12;;;;;;;11.07;3.15;;;2.80;99.90;;;;;;5040080;28;20096;-66
2022/03/01 05:27:40;;;;;;;5.97;2.65;;;2.90;99.90;;;;;;5043391;28;20021;-66
2022/03/01 05:30:07;;;;;;;4.65;2.38;;;2.90;99.90;;;;;;5041084;28;20735;-66
2022/03/01 05:32:37;;;;;;;7.13;3.00;;;2.90;99.90;;;;;;5042584;28;20022;-67
2022/03/01 05:35:04;;;;;;;6.30;2.50;;;2.90;99.90;;;;;;5039356;28;20032;-66
2022/03/01 05:37:30;;;;;;;5.22;2.50;;;3.00;99.90;;;;;;5038876;28;20033;-66
2022/03/01 05:39:56;;;;;;;5.40;2.28;;;3.10;99.90;;;;;;5039502;28;20045;-66
2022/03/01 05:42:23;;;;;;;4.60;2.58;;;3.10;99.90;;;;;;5038769;28;20604;-66
2022/03/01 05:44:50;;;;;;;11.10;3.42;;;3.20;99.90;;;;;;5038526;28;20030;-66
2022/03/01 05:47:15;;;;;;;5.85;2.50;;;3.20;99.90;;;;;;5042268;28;20029;-66
2022/03/01 05:49:42;;;;;;;7.07;2.35;;;3.20;99.90;;;;;;5036483;28;20055;-66
2022/03/01 05:52:07;;;;;;;14.65;3.78;;;3.30;99.90;;;;;;5038423;28;20074;-66
2022/03/01 05:54:33;;;;;;;5.07;2.08;;;3.40;99.90;;;;;;5034000;28;20389;-66
2022/03/01 05:56:59;;;;;;;3.60;1.65;;;3.40;99.90;;;;;;5041981;28;20036;-66
2022/03/01 05:59:24;;;;;;;6.78;3.15;;;3.50;99.90;;;;;;5038727;28;20537;-67
2022/03/01 06:01:50;;;;;;;8.23;2.58;;;3.50;99.90;;;;;;5035465;28;20103;-66
2022/03/01 06:04:15;;;;;;;5.28;2.28;;;3.70;99.90;;;;;;5037252;28;20167;-66
2022/03/01 06:06:41;;;;;;;6.75;2.70;;;3.70;99.90;;;;;;5042209;28;20021;-66
2022/03/01 06:09:06;;;;;;;11.38;2.28;;;3.60;99.90;;;;;;5039418;28;20835;-67
2022/03/01 06:11:32;;;;;;;4.30;1.85;;;3.70;99.90;;;;;;5042450;28;20029;-66
2022/03/01 06:13:58;;;;;;;7.55;3.28;;;3.70;99.90;;;;;;5035013;28;20037;-67
2022/03/01 06:16:23;;;;;;;4.20;2.05;;;3.80;99.90;;;;;;5037073;28;20043;-67
2022/03/01 06:18:53;;;;;;;4.97;2.55;;;3.80;99.90;;;;;;5041959;28;20114;-66
2022/03/01 06:21:19;;;;;;;5.70;2.65;;;3.80;99.90;;;;;;5041005;28;20017;-66
2022/03/01 06:23:45;;;;;;;4.40;2.15;;;3.90;99.90;;;;;;5041068;28;20044;-67
2022/03/01 06:26:12;;;;;;;5.30;2.10;;;3.90;99.90;;;;;;5040504;28;20113;-67
2022/03/01 06:28:37;;;;;;;11.20;2.60;;;3.90;99.90;;;;;;5038202;28;20045;-67
2022/03/01 06:31:03;;;;;;;10.73;3.60;;;3.90;99.90;;;;;;5043597;28;20832;-67
2022/03/01 06:33:29;;;;;;;6.00;2.47;;;3.90;99.90;;;;;;5036835;28;20092;-67
2022/03/01 06:35:54;;;;;;;10.13;3.97;;;3.90;99.90;;;;;;5041802;28;20028;-67
2022/03/01 06:38:20;;;;;;;5.03;2.58;;;3.90;99.90;;;;;;5032845;28;20032;-67
2022/03/01 06:40:45;;;;;;;8.00;2.70;;;4.00;99.90;;;;;;5043715;28;20041;-67
2022/03/01 06:43:11;;;;;;;5.45;2.50;;;4.00;99.90;;;;;;5040840;28;20025;-67
2022/03/01 06:45:37;;;;;;;5.45;2.67;;;4.00;99.90;;;;;;5047798;28;20079;-67
2022/03/01 06:48:02;;;;;;;10.95;3.55;;;4.00;99.90;;;;;;5044528;28;20436;-67
2022/03/01 06:50:28;;;;;;;6.10;2.60;;;4.10;99.90;;;;;;5047345;28;20521;-69
2022/03/01 06:52:54;;;;;;;8.88;3.17;;;4.10;99.90;;;;;;5040743;28;20072;-68
2022/03/01 06:55:21;;;;;;;8.05;3.38;;;4.20;99.90;;;;;;5039537;28;20035;-68
2022/03/01 06:57:48;;;;;;;6.75;2.72;;;4.20;99.90;;;;;;5049886;28;20039;-68
2022/03/01 07:00:14;;;;;;;6.00;3.13;;;4.30;99.90;;;;;;5037297;28;20425;-68
2022/03/01 07:02:41;;;;;;;15.82;3.80;;;4.40;99.90;;;;;;5047425;28;20025;-67
2022/03/01 07:05:09;;;;;;;6.38;5.05;;;4.40;99.90;;;;;;5039422;28;20048;-68
2022/03/01 07:07:35;;;;;;;7.50;2.88;;;4.50;99.90;;;;;;5047516;28;20116;-67
2022/03/01 07:10:01;;;;;;;4.25;1.83;;;4.50;99.90;;;;;;5046589;28;20033;-67
2022/03/01 07:12:26;;;;;;;3.10;2.03;;;4.60;99.90;;;;;;5040271;28;20044;-67
2022/03/01 07:14:53;;;;;;;4.50;2.65;;;4.60;99.90;;;;;;5041846;28;20033;-67
2022/03/01 07:17:19;;;;;;;5.22;2.78;;;4.60;99.90;;;;;;5042615;28;20696;-68
2022/03/01 07:19:45;;;;;;;4.90;2.03;;;4.70;99.90;;;;;;5038180;28;20080;-67
2022/03/01 07:22:10;;;;;;;11.65;3.08;;;4.80;99.90;;;;;;5037898;28;20033;-67
2022/03/01 07:24:36;;;;;;;4.50;2.20;;;4.80;99.90;;;;;;5038534;28;20033;-67
2022/03/01 07:27:01;;;;;;;7.55;2.80;;;4.80;99.90;;;;;;5049399;28;20016;-68
2022/03/01 07:29:27;;;;;;;6.40;2.03;;;4.80;99.90;;;;;;5052444;28;20055;-67
2022/03/01 07:31:53;;;;;;;5.70;2.60;;;4.80;99.90;;;;;;5041926;28;20043;-67
2022/03/01 07:34:19;;;;;;;3.78;1.52;;;4.80;99.90;;;;;;5036189;28;20040;-67
2022/03/01 07:36:44;;;;;;;3.67;1.60;;;4.80;99.90;;;;;;5032703;28;20044;-67
2022/03/01 07:39:10;;;;;;;19.65;3.80;;;4.80;99.90;;;;;;5038329;28;20503;-67
2022/03/01 07:41:36;;;;;;;9.02;3.00;;;4.90;99.90;;;;;;5042100;28;20043;-67
2022/03/01 07:44:01;;;;;;;10.85;2.60;;;4.80;99.90;;;;;;5036294;28;21410;-68
2022/03/01 07:46:27;;;;;;;4.95;2.03;;;5.00;99.90;;;;;;5044869;28;20385;-67
2022/03/01 07:48:52;;;;;;;8.65;2.20;;;5.00;99.90;;;;;;5047114;28;20043;-67
2022/03/01 07:51:18;;;;;;;10.10;2.38;;;5.00;99.90;;;;;;5041309;28;20107;-67
2022/03/01 07:53:44;;;;;;;5.80;2.15;;;5.00;99.90;;;;;;5048130;28;20287;-67
2022/03/01 07:56:09;;;;;;;8.30;1.92;;;5.10;99.90;;;;;;5042869;28;20068;-67
2022/03/01 07:58:35;;;;;;;11.07;3.08;;;5.10;99.90;;;;;;5046695;28;20029;-67
2022/03/01 08:01:01;;;;;;;8.75;2.65;;;5.20;99.80;;;;;;5048568;28;20028;-67
2022/03/01 08:03:26;;;;;;;8.10;2.85;;;5.20;99.80;;;;;;5039004;28;20021;-67
2022/03/01 08:05:52;;;;;;;7.63;2.97;;;5.20;98.90;;;;;;5048294;28;20151;-67
2022/03/01 08:08:19;;;;;;;14.73;3.40;;;5.20;98.90;;;;;;5038506;28;20057;-67
2022/03/01 08:10:44;;;;;;;5.60;2.20;;;5.30;98.90;;;;;;5042325;28;20025;-68
2022/03/01 08:13:10;;;;;;;3.83;1.85;;;5.30;98.90;;;;;;5042621;28;20033;-67
2022/03/01 08:15:38;;;;;;;3.42;1.75;;;5.30;98.60;;;;;;5045368;28;20029;-67
2022/03/01 08:18:04;;;;;;;5.05;2.38;;;5.30;98.80;;;;;;5046085;28;20057;-67
2022/03/01 08:20:30;;;;;;;4.63;2.20;;;5.40;98.30;;;;;;5045317;28;20032;-67
2022/03/01 08:22:57;;;;;;;6.20;2.88;;;5.50;98.30;;;;;;5040789;28;20029;-67
2022/03/01 08:25:23;;;;;;;6.22;2.72;;;5.60;97.70;;;;;;5047823;28;20027;-67
2022/03/01 08:27:48;;;;;;;3.50;2.05;;;5.60;97.10;;;;;;5047742;28;20112;-68
2022/03/01 08:30:14;;;;;;;7.57;2.15;;;5.80;97.30;;;;;;5047018;28;20561;-67
2022/03/01 08:32:40;;;;;;;13.18;3.45;;;5.90;97.10;;;;;;5047971;28;20021;-67
2022/03/01 08:35:06;;;;;;;6.63;3.13;;;6.00;96.70;;;;;;5047962;28;20037;-67
2022/03/01 08:37:32;;;;;;;6.70;2.72;;;6.10;96.70;;;;;;5039875;28;20018;-67
2022/03/01 08:40:06;;;;;;;6.05;2.65;;;6.10;96.20;;;;;;5034316;28;20038;-67
2022/03/01 08:42:31;;;;;;;4.97;1.77;;;6.10;95.90;;;;;;5038966;28;20034;-68
2022/03/01 08:44:57;;;;;;;10.02;3.03;;;6.20;96.40;;;;;;5040648;28;20032;-68
2022/03/01 08:47:23;;;;;;;12.68;2.80;;;6.20;96.00;;;;;;5048475;28;20096;-68
2022/03/01 08:49:49;;;;;;;7.57;2.03;;;6.40;95.70;;;;;;5043203;28;20040;-67
2022/03/01 08:52:17;;;;;;;6.53;2.45;;;6.60;95.00;;;;;;5043185;28;20092;-68
2022/03/01 08:54:43;;;;;;;10.40;2.40;;;6.70;95.20;;;;;;5042181;28;20021;-68
2022/03/01 08:57:09;;;;;;;4.30;1.48;;;7.00;94.70;;;;;;5046462;28;20053;-67
2022/03/01 08:59:34;;;;;;;9.82;1.95;;;7.10;93.70;;;;;;5048506;28;20128;-68
2022/03/01 09:02:00;;;;;;;9.52;2.78;;;7.00;93.70;;;;;;5038037;28;20466;-67
2022/03/01 09:04:26;;;;;;;11.25;3.47;;;7.00;93.60;;;;;;5043743;28;20770;-67
2022/03/01 09:06:51;;;;;;;12.85;3.03;;;7.60;94.10;;;;;;5046834;28;20029;-67
2022/03/01 09:09:17;;;;;;;5.18;2.22;;;8.30;92.90;;;;;;5046583;28;20084;-68
2022/03/01 09:11:42;;;;;;;5.70;2.35;;;8.50;92.50;;;;;;5044049;28;20033;-67
2022/03/01 09:14:17;;;;;;;10.98;3.17;;;8.80;91.30;;;;;;5044166;28;20556;-68
2022/03/01 09:16:43;;;;;;;9.05;3.25;;;9.00;91.40;;;;;;5046446;28;20033;-68
2022/03/01 09:19:10;;;;;;;6.63;2.63;;;9.20;91.20;;;;;;5044709;28;20597;-68
2022/03/01 09:21:36;;;;;;;7.50;2.92;;;9.30;91.10;;;;;;5047771;28;20025;-67
2022/03/01 09:24:02;;;;;;;7.28;2.55;;;9.40;90.60;;;;;;5043884;28;20036;-67
2022/03/01 09:26:28;;;;;;;8.27;2.70;;;9.30;90.70;;;;;;5045224;28;20033;-68
2022/03/01 09:28:53;;;;;;;7.30;2.53;;;9.50;90.50;;;;;;5048595;28;20633;-68
2022/03/01 09:31:19;;;;;;;9.68;3.53;;;8.90;91.10;;;;;;5050754;28;20393;-68
2022/03/01 09:33:45;;;;;;;13.63;3.60;;;8.80;91.50;;;;;;5055534;28;20021;-68
2022/03/01 09:36:12;;;;;;;9.13;3.00;;;8.80;91.20;;;;;;5042220;28;20397;-68
2022/03/01 09:38:38;;;;;;;8.85;3.15;;;9.60;91.30;;;;;;5041050;28;20024;-68
2022/03/01 09:41:04;;;;;;;10.50;3.28;;;9.90;90.20;;;;;;5042550;28;20108;-68
2022/03/01 09:43:31;;;;;;;7.72;3.03;;;9.80;89.10;;;;;;5036197;28;20021;-68
2022/03/01 09:45:56;;;;;;;7.30;2.75;;;9.60;90.30;;;;;;5041143;28;20032;-68
2022/03/01 09:48:22;;;;;;;9.95;2.92;;;9.60;90.30;;;;;;5040612;28;20118;-68
2022/03/01 09:50:49;;;;;;;6.13;2.28;;;9.80;89.20;;;;;;5043876;28;20095;-68
2022/03/01 09:53:14;;;;;;;6.65;2.78;;;9.80;89.20;;;;;;5037079;28;20067;-68
2022/03/01 09:55:40;;;;;;;8.07;3.08;;;9.70;87.60;;;;;;5040016;28;20053;-68
2022/03/01 09:58:07;;;;;;;7.90;2.92;;;9.50;89.30;;;;;;5041330;28;20504;-68
2022/03/01 10:00:33;;;;;;;6.57;2.33;;;9.80;90.30;;;;;;5039085;28;20041;-68
2022/03/01 10:02:59;;;;;;;9.18;2.75;;;10.00;89.80;;;;;;5041537;28;20323;-68
2022/03/01 10:05:37;;;;;;;9.68;3.97;;;9.80;88.00;;;;;;5031349;28;20079;-68
2022/03/01 10:08:12;;;;;;;8.70;2.85;;;10.00;88.20;;;;;;5031394;28;20440;-68
2022/03/01 10:10:52;;;;;;;6.63;2.15;;;9.90;88.10;;;;;;5046427;28;20021;-68
2022/03/01 10:13:22;;;;;;;;;;;9.90;88.70;;;;;;5036329;28;20406;-68
2022/03/01 10:15:51;;;;;;;16.27;3.10;;;9.90;88.70;;;;;;5036905;28;20303;-68
2022/03/01 10:18:17;;;;;;;14.80;3.17;;;10.10;87.00;;;;;;5038843;28;20021;-68
2022/03/01 10:20:45;;;;;;;6.95;2.25;;;10.20;87.20;;;;;;5044456;28;20028;-68
2022/03/01 10:23:12;;;;;;;8.85;2.78;;;10.20;87.60;;;;;;5043037;28;20036;-68
2022/03/01 10:25:42;;;;;;;10.25;2.90;;;10.00;86.90;;;;;;5044899;28;20033;-68
2022/03/01 10:28:09;;;;;;;8.55;2.88;;;10.10;87.60;;;;;;5042821;28;20029;-68
2022/03/01 10:30:36;;;;;;;5.07;2.13;;;10.90;88.50;;;;;;5045298;28;20562;-66
2022/03/01 10:33:12;;;;;;;8.18;2.72;;;12.10;85.90;;;;;;5042617;28;20052;-66
2022/03/01 10:35:40;;;;;;;18.95;3.67;;;12.60;83.50;;;;;;5054784;28;20028;-66
2022/03/01 10:38:06;;;;;;;7.00;2.60;;;13.00;81.90;;;;;;5040568;28;20598;-66
2022/03/01 10:40:33;;;;;;;10.20;2.88;;;13.60;80.00;;;;;;5039206;28;20055;-66
2022/03/01 10:43:12;;;;;;;7.35;2.67;;;12.10;80.20;;;;;;5032595;28;20017;-68
2022/03/01 10:45:47;;;;;;;8.32;2.80;;;12.30;81.80;;;;;;5041011;28;20029;-65
2022/03/01 10:48:29;;;;;;;8.25;3.05;;;12.90;80.40;;;;;;5040669;28;20025;-68
2022/03/01 10:50:58;;;;;;;9.15;3.05;;;12.90;80.60;;;;;;5041910;28;20052;-65
2022/03/01 10:53:46;;;;;;;8.80;2.58;;;13.20;78.20;;;;;;5042365;28;20040;-68
2022/03/01 10:56:14;;;;;;;9.38;2.90;;;13.90;77.50;;;;;;5043487;28;20033;-68
2022/03/01 10:58:42;;;;;;;11.13;3.92;;;14.10;75.20;;;;;;5039751;28;20120;-65
2022/03/01 11:01:09;;;;;;;7.95;3.03;;;14.50;74.70;;;;;;5041652;28;20672;-67
2022/03/01 11:03:35;;;;;;;9.48;2.95;;;13.90;74.10;;;;;;5041530;28;20025;-66
2022/03/01 11:06:01;;;;;;;9.40;2.83;;;12.80;75.90;;;;;;5039222;28;20488;-67
2022/03/01 11:08:36;;;;;;;14.18;3.53;;;12.50;77.70;;;;;;5044150;28;20456;-67
2022/03/01 11:11:05;;;;;;;10.95;3.00;;;12.40;77.40;;;;;;5037664;28;20132;-67
2022/03/01 11:13:34;;;;;;;7.85;2.03;;;12.80;76.10;;;;;;5038728;28;20029;-66
2022/03/01 11:16:24;;;;;;;11.05;2.45;;;12.40;76.50;;;;;;5048911;28;20071;-67
2022/03/01 11:19:12;;;;;;;9.98;2.70;;;12.30;77.20;;;;;;5042349;28;20041;-67
2022/03/01 11:21:43;;;;;;;12.07;3.90;;;12.50;77.50;;;;;;5051056;28;20033;-66
2022/03/01 11:24:11;;;;;;;9.10;3.15;;;12.90;77.30;;;;;;5039890;28;20476;-66
2022/03/01 11:26:38;;;;;;;11.30;3.10;;;12.70;76.80;;;;;;5044136;28;20040;-67
2022/03/01 11:29:12;;;;;;;13.15;3.78;;;13.20;76.20;;;;;;5030584;28;20060;-66
2022/03/01 11:31:39;;;;;;;8.52;2.60;;;12.70;76.30;;;;;;5029985;28;20116;-66
2022/03/01 11:34:13;;;;;;;6.85;2.05;;;12.50;76.80;;;;;;5041796;28;20476;-66
2022/03/01 11:36:48;;;;;;;6.97;2.60;;;12.10;75.90;;;;;;5044490;28;20053;-68
2022/03/01 11:39:16;;;;;;;16.55;3.95;;;11.70;76.20;;;;;;5039362;28;20033;-67
2022/03/01 11:41:49;;;;;;;8.48;3.15;;;11.70;77.80;;;;;;5036927;28;20036;-66
2022/03/01 11:44:23;;;;;;;10.30;3.58;;;11.90;79.30;;;;;;5034343;28;20040;-66
2022/03/01 11:46:50;;;;;;;10.80;3.55;;;12.40;77.90;;;;;;5044936;28;20112;-66
2022/03/01 11:49:18;;;;;;;6.50;2.45;;;12.80;76.50;;;;;;5043216;28;20040;-66
2022/03/01 11:52:02;;;;;;;7.38;2.70;;;12.60;75.60;;;;;;5041680;28;20070;-66
2022/03/01 11:54:33;;;;;;;8.95;2.45;;;12.50;77.00;;;;;;5035133;28;20037;-66
2022/03/01 11:57:00;;;;;;;7.93;2.88;;;12.60;75.60;;;;;;5045564;28;20177;-66
2022/03/01 11:59:27;;;;;;;12.98;3.20;;;12.60;75.60;;;;;;5046372;28;20029;-67
2022/03/01 12:01:54;;;;;;;9.73;3.20;;;12.90;76.00;;;;;;5040254;28;20032;-66
2022/03/01 12:04:27;;;;;;;10.65;3.38;;;12.90;76.90;;;;;;5036579;28;20069;-68
2022/03/01 12:06:57;;;;;;;10.95;2.90;;;12.80;76.50;;;;;;5044427;28;20653;-67
2022/03/01 12:09:26;;;;;;;12.10;3.20;;;13.10;75.80;;;;;;5040327;28;20037;-67
2022/03/01 12:12:04;;;;;;;10.40;2.58;;;12.80;76.00;;;;;;5038556;28;20048;-67
2022/03/01 12:14:30;;;;;;;13.05;3.60;;;13.50;76.60;;;;;;5038929;28;20571;-67
2022/03/01 12:16:55;;;;;;;9.52;2.88;;;13.60;75.10;;;;;;5044079;28;20103;-67
2022/03/01 12:19:23;;;;;;;11.88;3.22;;;13.80;74.20;;;;;;5038590;28;20027;-67
2022/03/01 12:21:50;;;;;;;10.00;2.70;;;14.00;72.60;;;;;;5044076;28;20025;-67
2022/03/01 12:24:17;;;;;;;8.82;2.90;;;14.20;73.50;;;;;;5037602;28;20058;-67
2022/03/01 12:26:54;;;;;;;8.98;2.45;;;14.20;70.90;;;;;;5046616;28;20098;-67
2022/03/01 12:29:22;;;;;;;8.95;3.25;;;14.00;72.60;;;;;;5036194;28;20049;-67
2022/03/01 12:32:20;;;;;;;10.80;3.40;;;14.20;74.20;;;;;;5042810;28;20033;-67
2022/03/01 12:34:47;;;;;;;9.85;3.28;;;14.50;74.00;;;;;;5010955;28;20140;-68
2022/03/01 12:37:18;;;;;;;10.48;3.35;;;15.40;70.90;;;;;;5039716;28;20036;-67
2022/03/01 12:39:45;;;;;;;8.48;3.15;;;15.00;69.70;;;;;;5037816;28;20021;-67
2022/03/01 12:42:11;;;;;;;11.02;3.92;;;15.30;70.70;;;;;;5038300;28;20035;-67
2022/03/01 12:44:37;;;;;;;12.88;3.20;;;14.60;71.20;;;;;;5038633;28;20405;-67
2022/03/01 12:47:05;;;;;;;10.85;3.65;;;14.20;71.20;;;;;;5039368;28;20033;-67
2022/03/01 12:49:34;;;;;;;13.65;2.65;;;13.60;70.40;;;;;;5031729;28;20504;-67
2022/03/01 12:52:00;;;;;;;10.70;3.60;;;14.20;73.50;;;;;;5035068;28;20103;-67